createdAt,value
2023-02-02T00:02:00.571Z,100785.47
2023-02-02T00:05:02.067Z,100781.38
2023-02-02T00:08:03.671Z,100784.13
2023-02-02T00:11:05.928Z,100786.19
2023-02-02T00:14:08.412Z,100774.19
2023-02-02T00:17:10.812Z,100775.44
2023-02-02T00:20:12.559Z,100777.00
2023-02-02T00:23:14.055Z,100776.34
2023-02-02T00:26:16.063Z,100776.06
2023-02-02T00:29:21.199Z,100787.38
2023-02-02T00:32:22.744Z,100782.31
2023-02-02T00:35:24.481Z,100771.22
2023-02-02T00:38:26.201Z,100768.09
2023-02-02T00:41:27.699Z,100782.34
2023-02-02T00:44:47.910Z,100783.22
2023-02-02T00:47:50.008Z,100771.38
2023-02-02T00:50:52.272Z,100766.03
2023-02-02T00:53:53.694Z,100750.38
2023-02-02T00:56:55.312Z,100751.50
2023-02-02T00:59:56.797Z,100750.13
2023-02-02T01:03:04.213Z,100760.75
2023-02-02T01:06:05.845Z,100764.66
2023-02-02T01:09:07.447Z,100772.28
2023-02-02T01:12:08.987Z,100769.28
2023-02-02T01:15:12.133Z,100772.97
2023-02-02T01:18:13.562Z,100781.78
2023-02-02T01:21:15.039Z,100787.03
2023-02-02T01:24:16.569Z,100784.34
2023-02-02T01:27:18.427Z,100793.59
2023-02-02T01:30:19.904Z,100789.03
2023-02-02T01:33:22.272Z,100788.75
2023-02-02T01:36:24.226Z,100787.31
2023-02-02T01:39:26.235Z,100804.50
2023-02-02T01:42:27.789Z,100802.41
2023-02-02T01:45:29.633Z,100798.31
2023-02-02T01:48:34.682Z,100798.16
2023-02-02T01:51:45.298Z,100795.13
2023-02-02T01:54:51.843Z,100796.22
2023-02-02T01:57:59.927Z,100793.41
2023-02-02T02:01:01.517Z,100792.03
2023-02-02T02:04:03.564Z,100796.22
2023-02-02T02:07:07.213Z,100778.56
2023-02-02T02:10:08.815Z,100773.56
2023-02-02T02:13:11.227Z,100770.00
2023-02-02T02:16:40.263Z,100768.00
2023-02-02T02:20:25.800Z,100773.28
2023-02-02T02:24:24.906Z,100766.41
2023-02-02T02:27:48.131Z,100778.56
2023-02-02T02:31:32.421Z,100768.41
2023-02-02T02:34:55.084Z,100766.75
2023-02-02T02:38:35.256Z,100772.16
2023-02-02T02:41:42.831Z,100771.97
2023-02-02T02:44:47.052Z,100764.53
2023-02-02T02:47:50.190Z,100770.56
2023-02-02T02:50:51.681Z,100769.13
2023-02-02T02:53:53.221Z,100771.44
2023-02-02T02:57:32.586Z,100782.09
2023-02-02T03:01:03.974Z,100791.28
2023-02-02T03:04:22.278Z,100787.81
2023-02-02T03:07:34.400Z,100791.53
2023-02-02T03:10:37.944Z,100781.34
2023-02-02T03:13:41.269Z,100783.31
2023-02-02T03:16:42.784Z,100789.91
2023-02-02T03:19:44.244Z,100782.44
2023-02-02T03:22:45.738Z,100779.16
2023-02-02T03:25:47.588Z,100779.50
2023-02-02T03:28:51.133Z,100778.63
2023-02-02T03:31:52.587Z,100785.25
2023-02-02T03:34:54.046Z,100789.13
2023-02-02T03:37:55.525Z,100780.59
2023-02-02T03:40:56.951Z,100788.47
2023-02-02T03:43:58.413Z,100784.44
2023-02-02T03:46:59.900Z,100787.19
2023-02-02T03:50:01.405Z,100791.41
2023-02-02T03:53:03.199Z,100787.19
2023-02-02T03:56:05.005Z,100791.25
2023-02-02T03:59:06.541Z,100792.66
2023-02-02T04:02:08.111Z,100793.13
2023-02-02T04:05:09.605Z,100802.16
2023-02-02T04:08:11.063Z,100803.50
2023-02-02T04:11:12.598Z,100807.69
2023-02-02T04:14:14.137Z,100811.91
2023-02-02T04:17:15.648Z,100804.31
2023-02-02T04:20:17.417Z,100799.91
2023-02-02T04:23:18.875Z,100800.66
2023-02-02T04:26:20.388Z,100806.84
2023-02-02T04:29:22.264Z,100802.41
2023-02-02T04:32:23.749Z,100804.72
2023-02-02T04:35:25.641Z,100807.69
2023-02-02T04:38:27.293Z,100807.44
2023-02-02T04:41:28.759Z,100806.47
2023-02-02T04:44:30.219Z,100810.06
2023-02-02T04:47:31.775Z,100806.09
2023-02-02T04:50:33.278Z,100815.50
2023-02-02T04:53:35.312Z,100813.50
2023-02-02T04:56:36.806Z,100804.31
2023-02-02T04:59:39.512Z,100807.34
2023-02-02T05:02:42.957Z,100815.56
2023-02-02T05:05:44.430Z,100820.06
2023-02-02T05:08:47.838Z,100810.63
2023-02-02T05:11:49.348Z,100814.78
2023-02-02T05:14:50.972Z,100811.91
2023-02-02T05:17:52.531Z,100816.72
2023-02-02T05:20:54.975Z,100824.31
2023-02-02T05:23:56.340Z,100808.38
2023-02-02T05:27:00.833Z,100815.19
2023-02-02T05:30:02.314Z,100813.22
2023-02-02T05:33:03.831Z,100812.28
2023-02-02T05:36:06.268Z,100822.69
2023-02-02T05:39:07.840Z,100818.56
2023-02-02T05:42:09.409Z,100818.06
2023-02-02T05:45:11.275Z,100809.44
2023-02-02T05:48:16.667Z,100814.34
2023-02-02T05:51:23.954Z,100808.94
2023-02-02T05:54:25.551Z,100820.28
2023-02-02T05:57:28.002Z,100821.25
2023-02-02T06:00:29.380Z,100818.72
2023-02-02T06:03:31.112Z,100821.69
2023-02-02T06:06:32.681Z,100826.97
2023-02-02T06:09:34.252Z,100824.16
2023-02-02T06:12:35.795Z,100830.72
2023-02-02T06:15:37.704Z,100845.31
2023-02-02T06:18:39.202Z,100841.94
2023-02-02T06:21:40.784Z,100850.66
2023-02-02T06:24:42.263Z,100861.38
2023-02-02T06:27:46.155Z,100859.00
2023-02-02T06:30:47.701Z,100867.78
2023-02-02T06:33:58.212Z,100871.88
2023-02-02T06:36:59.750Z,100878.53
2023-02-02T06:40:01.198Z,100878.69
2023-02-02T06:43:03.343Z,100877.25
2023-02-02T06:46:04.979Z,100874.97
2023-02-02T06:49:06.445Z,100875.22
2023-02-02T06:52:08.221Z,100875.94
2023-02-02T06:55:09.669Z,100870.25
2023-02-02T06:58:11.112Z,100875.84
2023-02-02T07:01:13.830Z,100881.03
2023-02-02T07:04:19.990Z,100879.00
2023-02-02T07:07:21.501Z,100880.25
2023-02-02T07:11:09.440Z,100880.00
2023-02-02T07:13:49.170Z,100870.81
2023-02-02T07:16:50.705Z,100865.53
2023-02-02T07:19:52.155Z,100860.03
2023-02-02T07:22:53.607Z,100857.09
2023-02-02T07:26:09.218Z,100848.16
2023-02-02T07:29:14.301Z,100851.56
2023-02-02T07:32:15.762Z,100851.50
2023-02-02T07:35:17.495Z,100846.47
2023-02-02T07:38:19.304Z,100850.00
2023-02-02T07:41:22.018Z,100858.78
2023-02-02T07:44:23.509Z,100868.00
2023-02-02T07:47:25.395Z,100870.09
2023-02-02T07:50:28.242Z,100864.81
2023-02-02T07:53:30.114Z,100866.75
2023-02-02T07:56:31.578Z,100865.78
2023-02-02T07:59:33.238Z,100854.16
2023-02-02T08:02:35.109Z,100844.97
2023-02-02T08:05:36.569Z,100860.16
2023-02-02T08:08:38.118Z,100841.84
2023-02-02T08:11:39.679Z,100837.19
2023-02-02T08:14:41.254Z,100835.19
2023-02-02T08:17:46.648Z,100838.97
2023-02-02T08:20:49.343Z,100839.66
2023-02-02T08:23:52.386Z,100856.00
2023-02-02T08:26:53.908Z,100850.28
2023-02-02T08:29:55.402Z,100849.53
2023-02-02T08:32:56.919Z,100858.53
2023-02-02T08:35:58.499Z,100866.03
2023-02-02T08:39:03.049Z,100866.03
2023-02-02T08:42:04.837Z,100878.03
2023-02-02T08:46:00.098Z,100884.06
2023-02-02T08:48:28.413Z,100879.78
2023-02-02T08:51:30.307Z,100888.16
2023-02-02T08:54:31.778Z,100896.84
2023-02-02T08:57:34.438Z,100909.59
2023-02-02T09:00:35.959Z,100916.84
2023-02-02T09:03:40.216Z,100910.22
2023-02-02T09:06:42.981Z,100916.50
2023-02-02T09:09:44.474Z,100925.28
2023-02-02T09:12:45.879Z,100930.31
2023-02-02T09:15:47.455Z,100942.75
2023-02-02T09:18:49.013Z,100936.22
2023-02-02T09:21:51.140Z,100951.09
2023-02-02T09:24:52.676Z,100931.78
2023-02-02T09:27:54.306Z,100935.91
2023-02-02T09:30:55.916Z,100941.25
2023-02-02T09:34:04.071Z,100959.00
2023-02-02T09:37:05.617Z,100962.25
2023-02-02T09:40:07.949Z,100968.38
2023-02-02T09:43:28.328Z,100963.06
2023-02-02T09:46:45.157Z,100966.34
2023-02-02T09:49:58.897Z,100958.53
2023-02-02T09:53:08.624Z,100964.84
2023-02-02T09:56:21.379Z,100953.63
2023-02-02T09:59:34.776Z,100938.13
2023-02-02T10:02:41.910Z,100939.59
2023-02-02T10:06:07.506Z,100956.25
2023-02-02T10:09:40.792Z,100958.28
2023-02-02T10:12:49.775Z,100969.50
2023-02-02T10:16:13.463Z,100976.19
2023-02-02T10:19:15.898Z,100976.19
2023-02-02T10:22:23.329Z,100974.53
2023-02-02T10:25:28.262Z,100987.63
2023-02-02T10:28:40.058Z,100988.09
2023-02-02T10:31:44.817Z,100995.91
2023-02-02T10:35:14.348Z,100997.22
2023-02-02T10:38:45.506Z,100975.84
2023-02-02T10:42:16.604Z,100972.50
2023-02-02T10:45:20.666Z,100972.50
2023-02-02T10:48:29.035Z,100970.78
2023-02-02T10:51:30.686Z,100961.97
2023-02-02T10:54:55.042Z,100961.25
2023-02-02T10:58:07.149Z,100959.75
2023-02-02T11:01:11.539Z,100949.44
2023-02-02T11:04:31.835Z,100949.81
2023-02-02T11:07:33.263Z,100958.38
2023-02-02T11:10:34.726Z,100956.34
2023-02-02T11:13:46.668Z,100957.63
2023-02-02T11:17:01.557Z,100945.47
2023-02-02T11:20:23.241Z,100961.97
2023-02-02T11:23:28.195Z,100962.13
2023-02-02T11:26:55.251Z,100957.81
2023-02-02T11:30:09.659Z,100950.53
2023-02-02T11:33:35.447Z,100954.03
2023-02-02T11:36:36.918Z,100956.66
2023-02-02T11:39:40.131Z,100964.28
2023-02-02T11:42:46.886Z,100970.78
2023-02-02T11:45:54.910Z,100968.91
2023-02-02T11:49:03.629Z,100971.75
2023-02-02T11:52:14.809Z,100977.28
2023-02-02T11:55:22.191Z,100971.13
2023-02-02T11:58:29.622Z,100968.25
2023-02-02T12:01:34.447Z,100980.22
2023-02-02T12:04:36.006Z,100971.69
2023-02-02T12:07:37.707Z,100976.31
2023-02-02T12:10:48.515Z,100977.53
2023-02-02T12:14:02.350Z,100985.75
2023-02-02T12:17:28.588Z,100991.91
2023-02-02T12:21:00.200Z,100996.41
2023-02-02T12:24:17.384Z,100986.56
2023-02-02T12:27:35.369Z,100983.38
2023-02-02T12:30:52.940Z,100986.19
2023-02-02T12:34:10.664Z,100981.16
2023-02-02T12:37:28.669Z,100988.19
2023-02-02T12:41:09.907Z,100976.78
2023-02-02T12:44:43.830Z,100964.75
2023-02-02T12:48:06.283Z,100960.63
2023-02-02T12:51:14.385Z,100970.53
2023-02-02T12:54:46.410Z,100960.19
2023-02-02T12:58:21.629Z,100978.69
2023-02-02T13:01:23.094Z,100974.38
2023-02-02T13:04:39.629Z,100974.09
2023-02-02T13:07:52.511Z,100978.50
2023-02-02T13:11:03.338Z,100979.16
2023-02-02T13:14:12.183Z,100970.69
2023-02-02T13:17:20.825Z,100976.88
2023-02-02T13:20:40.838Z,100964.19
2023-02-02T13:23:50.395Z,100968.44
2023-02-02T13:26:52.631Z,100975.53
2023-02-02T13:30:05.583Z,100967.59
2023-02-02T13:33:16.604Z,100963.69
2023-02-02T13:36:29.803Z,100968.41
2023-02-02T13:39:40.941Z,100973.47
2023-02-02T13:42:47.948Z,100973.59
2023-02-02T13:45:55.605Z,100984.69
2023-02-02T13:49:04.566Z,100979.59
2023-02-02T13:52:40.068Z,100988.72
2023-02-02T13:55:56.734Z,100988.41
2023-02-02T13:59:35.750Z,100992.78
2023-02-02T14:02:47.897Z,100991.53
2023-02-02T14:06:27.005Z,100997.31
2023-02-02T14:09:32.151Z,100995.41
2023-02-02T14:12:35.699Z,100995.88
2023-02-02T14:15:44.354Z,100996.44
2023-02-02T14:18:48.881Z,101002.44
2023-02-02T14:22:02.709Z,101010.47
2023-02-02T14:25:33.357Z,101006.69
2023-02-02T14:28:43.865Z,101002.66
2023-02-02T14:31:54.828Z,100997.19
2023-02-02T14:34:58.346Z,101003.34
2023-02-02T14:38:13.549Z,100999.38
2023-02-02T14:41:55.137Z,101000.78
2023-02-02T14:45:25.845Z,100999.22
2023-02-02T14:48:27.551Z,100992.69
2023-02-02T14:51:32.783Z,101001.16
2023-02-02T14:54:41.412Z,100999.72
2023-02-02T14:57:43.130Z,101013.03
2023-02-02T15:01:02.400Z,101012.59
2023-02-02T15:04:22.460Z,101019.19
2023-02-02T15:07:23.893Z,101018.16
2023-02-02T15:10:59.690Z,101017.16
2023-02-02T15:14:10.126Z,101020.06
2023-02-02T15:17:27.724Z,101025.84
2023-02-02T15:20:49.937Z,101021.97
2023-02-02T15:23:51.657Z,101031.47
2023-02-02T15:26:54.693Z,101033.28
2023-02-02T15:30:03.099Z,101034.97
2023-02-02T15:33:15.373Z,101039.06
2023-02-02T15:36:25.445Z,101044.91
2023-02-02T15:39:44.703Z,101050.69
2023-02-02T15:42:54.218Z,101056.31
2023-02-02T15:46:02.614Z,101051.13
2023-02-02T15:49:35.904Z,101059.53
2023-02-02T15:52:50.172Z,101068.56
2023-02-02T15:55:52.861Z,101072.44
2023-02-02T15:58:59.588Z,101081.72
2023-02-02T16:02:11.751Z,101082.03
2023-02-02T16:05:31.343Z,101087.16
2023-02-02T16:08:36.383Z,101089.16
2023-02-02T16:11:42.347Z,101087.16
2023-02-02T16:14:46.828Z,101086.84
2023-02-02T16:18:05.456Z,101092.59
2023-02-02T16:21:24.730Z,101096.75
2023-02-02T16:24:33.279Z,101099.03
2023-02-02T16:27:35.398Z,101102.88
2023-02-02T16:30:38.962Z,101121.47
2023-02-02T16:33:45.211Z,101126.53
2023-02-02T16:37:04.964Z,101126.97
2023-02-02T16:40:36.067Z,101126.13
2023-02-02T16:43:40.151Z,101133.59
2023-02-02T16:46:45.716Z,101136.66
2023-02-02T16:49:47.241Z,101137.47
2023-02-02T16:53:02.305Z,101142.22
2023-02-02T16:56:07.640Z,101142.06
2023-02-02T16:59:21.910Z,101159.38
2023-02-02T17:02:35.680Z,101164.84
2023-02-02T17:05:54.009Z,101173.78
2023-02-02T17:08:55.453Z,101187.34
2023-02-02T17:12:03.267Z,101197.16
2023-02-02T17:15:16.911Z,101199.84
2023-02-02T17:18:18.439Z,101205.69
2023-02-02T17:21:22.733Z,101208.19
2023-02-02T17:24:24.317Z,101216.97
2023-02-02T17:27:33.851Z,101208.50
2023-02-02T17:30:36.083Z,101202.72
2023-02-02T17:33:38.161Z,101205.78
2023-02-02T17:36:39.796Z,101202.69
2023-02-02T17:39:41.274Z,101190.41
2023-02-02T17:42:44.993Z,101183.16
2023-02-02T17:45:46.521Z,101188.94
2023-02-02T17:48:48.096Z,101201.19
2023-02-02T17:51:50.638Z,101205.88
2023-02-02T17:54:52.089Z,101201.03
2023-02-02T17:57:54.187Z,101194.88
2023-02-02T18:00:58.941Z,101201.97
2023-02-02T18:04:00.680Z,101209.03
2023-02-02T18:07:03.664Z,101220.84
2023-02-02T18:10:06.534Z,101207.72
2023-02-02T18:13:09.718Z,101210.69
2023-02-02T18:16:12.433Z,101209.84
2023-02-02T18:19:13.862Z,101218.59
2023-02-02T18:22:15.426Z,101223.72
2023-02-02T18:25:17.412Z,101220.56
2023-02-02T18:28:19.181Z,101213.84
2023-02-02T18:31:23.662Z,101221.03
2023-02-02T18:34:28.806Z,101222.31
2023-02-02T18:37:30.271Z,101229.41
2023-02-02T18:40:31.724Z,101231.00
2023-02-02T18:43:33.526Z,101237.94
2023-02-02T18:46:35.032Z,101230.13
2023-02-02T18:49:36.456Z,101224.19
2023-02-02T18:52:37.900Z,101228.56
2023-02-02T18:55:39.447Z,101224.47
2023-02-02T18:58:41.249Z,101230.59
2023-02-02T19:01:42.833Z,101227.03
2023-02-02T19:05:03.540Z,101238.47
2023-02-02T19:08:05.709Z,101245.44
2023-02-02T19:11:14.554Z,101249.59
2023-02-02T19:14:24.670Z,101253.63
2023-02-02T19:17:27.909Z,101255.59
2023-02-02T19:20:30.563Z,101249.06
2023-02-02T19:23:34.707Z,101251.75
2023-02-02T19:26:40.408Z,101254.88
2023-02-02T19:29:41.960Z,101273.06
2023-02-02T19:32:43.720Z,101267.94
2023-02-02T19:35:49.250Z,101261.59
2023-02-02T19:38:55.690Z,101245.31
2023-02-02T19:42:00.531Z,101246.50
2023-02-02T19:45:17.310Z,101240.28
2023-02-02T19:48:24.752Z,101245.75
2023-02-02T19:51:44.617Z,101241.22
2023-02-02T19:54:48.812Z,101234.84
2023-02-02T19:57:52.076Z,101232.75
2023-02-02T20:00:56.260Z,101230.75
2023-02-02T20:03:58.461Z,101230.03
2023-02-02T20:07:00.021Z,101233.75
2023-02-02T20:10:18.660Z,101242.41
2023-02-02T20:13:58.514Z,101255.06
2023-02-02T20:17:04.808Z,101249.88
2023-02-02T20:20:27.447Z,101245.47
2023-02-02T20:23:36.416Z,101249.25
2023-02-02T20:26:38.292Z,101246.69
2023-02-02T20:29:42.422Z,101247.25
2023-02-02T20:32:43.919Z,101245.41
2023-02-02T20:35:45.309Z,101246.91
2023-02-02T20:38:46.774Z,101241.44
2023-02-02T20:41:48.625Z,101249.44
2023-02-02T20:44:50.920Z,101256.22
2023-02-02T20:47:52.500Z,101245.47
2023-02-02T20:50:54.107Z,101245.63
2023-02-02T20:53:56.481Z,101243.31
2023-02-02T20:56:58.170Z,101264.38
2023-02-02T20:59:59.872Z,101258.41
2023-02-02T21:03:01.412Z,101257.13
2023-02-02T21:06:02.880Z,101268.13
2023-02-02T21:09:06.236Z,101267.66
2023-02-02T21:12:07.877Z,101266.44
2023-02-02T21:15:09.978Z,101266.44
2023-02-02T21:18:11.452Z,101260.06
2023-02-02T21:21:14.292Z,101264.09
2023-02-02T21:24:15.760Z,101257.19
2023-02-02T21:27:17.229Z,101257.31
2023-02-02T21:30:18.848Z,101262.75
2023-02-02T21:33:20.254Z,101252.41
2023-02-02T21:36:36.352Z,101256.38
2023-02-02T21:39:37.796Z,101247.56
2023-02-02T21:42:39.288Z,101245.81
2023-02-02T21:45:42.929Z,101249.25
2023-02-02T21:48:46.143Z,101265.06
2023-02-02T21:51:47.638Z,101267.13
2023-02-02T21:54:49.321Z,101263.03
2023-02-02T21:57:50.758Z,101271.16
2023-02-02T22:00:54.281Z,101265.28
2023-02-02T22:03:55.734Z,101269.06
2023-02-02T22:07:10.207Z,101270.06
2023-02-02T22:10:20.699Z,101273.09
2023-02-02T22:13:24.917Z,101275.59
2023-02-02T22:16:26.478Z,101279.72
2023-02-02T22:19:38.325Z,101281.06
2023-02-02T22:22:44.206Z,101278.97
2023-02-02T22:25:48.166Z,101273.09
2023-02-02T22:28:49.566Z,101278.38
2023-02-02T22:31:50.988Z,101276.53
2023-02-02T22:34:52.542Z,101283.25
2023-02-02T22:37:54.071Z,101280.72
2023-02-02T22:40:55.577Z,101268.91
2023-02-02T22:43:57.046Z,101272.75
2023-02-02T22:46:58.493Z,101277.38
2023-02-02T22:49:59.921Z,101275.88
2023-02-02T22:53:02.594Z,101280.41
2023-02-02T22:56:04.307Z,101288.78
2023-02-02T22:59:05.774Z,101274.34
2023-02-02T23:02:07.214Z,101279.31
2023-02-02T23:05:11.640Z,101268.50
2023-02-02T23:08:13.219Z,101278.28
2023-02-02T23:11:14.747Z,101269.91
2023-02-02T23:14:16.137Z,101277.19
2023-02-02T23:17:17.602Z,101282.25
2023-02-02T23:20:19.379Z,101284.75
2023-02-02T23:23:22.285Z,101289.78
2023-02-02T23:26:24.109Z,101288.63
2023-02-02T23:29:25.511Z,101289.13
2023-02-02T23:32:26.952Z,101299.94
2023-02-02T23:35:28.338Z,101293.22
2023-02-02T23:38:29.730Z,101302.03
2023-02-02T23:41:31.197Z,101308.41
2023-02-02T23:44:32.606Z,101315.56
2023-02-02T23:47:34.894Z,101327.38
2023-02-02T23:50:38.431Z,101324.50
2023-02-02T23:53:41.603Z,101321.50
2023-02-02T23:56:43.227Z,101322.22
2023-02-02T23:59:44.620Z,101325.47
